createdAt,value
2023-04-11T00:00:37.820Z,0.00
2023-04-11T00:01:37.802Z,0.00
2023-04-11T00:02:38.036Z,0.00
2023-04-11T00:03:37.976Z,0.00
2023-04-11T00:04:37.786Z,0.00
2023-04-11T00:05:37.669Z,0.00
2023-04-11T00:06:37.649Z,0.00
2023-04-11T00:07:37.645Z,0.00
2023-04-11T00:08:37.594Z,0.00
2023-04-11T00:09:37.572Z,0.00
2023-04-11T00:10:37.554Z,0.00
2023-04-11T00:11:37.540Z,0.00
2023-04-11T00:12:37.493Z,0.00
2023-04-11T00:13:37.488Z,0.00
2023-04-11T00:14:37.453Z,0.00
2023-04-11T00:15:37.428Z,0.00
2023-04-11T00:16:37.467Z,0.00
2023-04-11T00:17:37.389Z,0.00
2023-04-11T00:18:37.352Z,0.00
2023-04-11T00:19:37.321Z,0.00
2023-04-11T00:20:37.315Z,0.00
2023-04-11T00:21:37.268Z,0.00
2023-04-11T00:22:37.251Z,0.00
2023-04-11T00:23:37.222Z,0.00
2023-04-11T00:24:37.198Z,0.00
2023-04-11T00:25:37.232Z,0.00
2023-04-11T00:26:37.154Z,0.00
2023-04-11T00:27:37.149Z,0.00
2023-04-11T00:28:37.105Z,0.00
2023-04-11T00:29:37.079Z,0.00
2023-04-11T00:30:37.049Z,0.00
2023-04-11T00:31:37.039Z,0.00
2023-04-11T00:32:37.034Z,0.00
2023-04-11T00:33:38.637Z,0.00
2023-04-11T00:34:36.963Z,0.00
2023-04-11T00:35:36.986Z,0.00
2023-04-11T00:36:36.953Z,0.00
2023-04-11T00:37:36.873Z,0.00
2023-04-11T00:38:36.857Z,0.00
2023-04-11T00:39:36.823Z,0.00
2023-04-11T00:40:36.799Z,0.00
2023-04-11T00:41:36.772Z,0.00
2023-04-11T00:42:36.752Z,0.00
2023-04-11T00:43:36.747Z,0.00
2023-04-11T00:44:36.705Z,0.00
2023-04-11T00:45:36.690Z,0.00
2023-04-11T00:46:36.653Z,0.00
2023-04-11T00:47:36.725Z,0.00
2023-04-11T00:48:36.605Z,0.00
2023-04-11T00:49:36.623Z,0.00
2023-04-11T00:50:36.557Z,0.00
2023-04-11T00:51:36.528Z,0.00
2023-04-11T00:52:36.502Z,0.00
2023-04-11T00:53:36.478Z,0.00
2023-04-11T00:54:36.470Z,0.00
2023-04-11T00:55:36.428Z,0.00
2023-04-11T00:56:36.427Z,0.00
2023-04-11T00:57:36.385Z,0.00
2023-04-11T00:58:36.355Z,0.00
2023-04-11T00:59:36.356Z,0.00
2023-04-11T01:00:36.306Z,0.00
2023-04-11T01:01:36.501Z,0.00
2023-04-11T01:02:36.390Z,0.00
2023-04-11T01:03:36.431Z,0.00
2023-04-11T01:04:36.216Z,0.00
2023-04-11T01:05:36.184Z,0.00
2023-04-11T01:06:36.162Z,0.00
2023-04-11T01:07:36.140Z,0.00
2023-04-11T01:08:36.117Z,0.00
2023-04-11T01:09:36.087Z,0.00
2023-04-11T01:10:36.082Z,0.00
2023-04-11T01:11:36.039Z,0.00
2023-04-11T01:12:36.020Z,0.00
2023-04-11T01:13:35.992Z,0.00
2023-04-11T01:14:35.969Z,0.00
2023-04-11T01:15:35.962Z,0.00
2023-04-11T01:16:35.972Z,0.00
2023-04-11T01:17:35.924Z,0.00
2023-04-11T01:18:35.865Z,0.00
2023-04-11T01:19:35.836Z,0.00
2023-04-11T01:20:35.818Z,0.00
2023-04-11T01:21:35.787Z,0.00
2023-04-11T01:22:35.771Z,0.00
2023-04-11T01:23:35.751Z,0.00
2023-04-11T01:24:35.719Z,0.00
2023-04-11T01:25:35.691Z,0.00
2023-04-11T01:26:35.667Z,0.00
2023-04-11T01:27:35.641Z,0.00
2023-04-11T01:28:35.616Z,0.00
2023-04-11T01:29:35.593Z,0.00
2023-04-11T01:30:35.618Z,0.00
2023-04-11T01:31:35.580Z,0.00
2023-04-11T01:32:35.556Z,0.00
2023-04-11T01:33:35.493Z,0.00
2023-04-11T01:34:35.471Z,0.00
2023-04-11T01:35:35.467Z,0.00
2023-04-11T01:36:35.422Z,0.00
2023-04-11T01:37:35.395Z,0.00
2023-04-11T01:38:35.365Z,0.00
2023-04-11T01:39:35.343Z,0.00
2023-04-11T01:40:35.319Z,0.00
2023-04-11T01:41:35.293Z,0.00
2023-04-11T01:42:35.276Z,0.00
2023-04-11T01:43:35.250Z,0.00
2023-04-11T01:44:35.219Z,0.00
2023-04-11T01:45:35.198Z,0.00
2023-04-11T01:46:35.170Z,0.00
2023-04-11T01:47:35.215Z,0.00
2023-04-11T01:48:35.194Z,0.00
2023-04-11T01:49:35.100Z,0.00
2023-04-11T01:50:35.062Z,0.00
2023-04-11T01:51:35.055Z,0.00
2023-04-11T01:52:35.019Z,0.00
2023-04-11T01:53:34.992Z,0.00
2023-04-11T01:54:34.969Z,0.00
2023-04-11T01:55:34.950Z,0.00
2023-04-11T01:56:34.915Z,0.00
2023-04-11T01:57:34.901Z,0.00
2023-04-11T01:58:34.863Z,0.00
2023-04-11T01:59:34.853Z,0.00
2023-04-11T02:00:34.823Z,0.00
2023-04-11T02:01:34.825Z,0.00
2023-04-11T02:02:34.877Z,0.00
2023-04-11T02:03:34.976Z,0.00
2023-04-11T02:04:34.722Z,0.00
2023-04-11T02:05:34.713Z,0.00
2023-04-11T02:06:34.668Z,0.00
2023-04-11T02:07:34.648Z,0.00
2023-04-11T02:08:34.613Z,0.00
2023-04-11T02:09:34.594Z,0.00
2023-04-11T02:10:34.577Z,0.00
2023-04-11T02:11:34.540Z,0.00
2023-04-11T02:12:34.522Z,0.00
2023-04-11T02:13:34.491Z,0.00
2023-04-11T02:14:34.465Z,0.00
2023-04-11T02:15:34.476Z,0.00
2023-04-11T02:16:34.414Z,0.00
2023-04-11T02:17:34.433Z,0.00
2023-04-11T02:18:34.376Z,0.00
2023-04-11T02:19:34.366Z,0.00
2023-04-11T02:20:34.324Z,0.00
2023-04-11T02:21:34.293Z,0.00
2023-04-11T02:22:34.277Z,0.00
2023-04-11T02:23:34.245Z,0.00
2023-04-11T02:24:34.214Z,0.00
2023-04-11T02:25:34.196Z,0.00
2023-04-11T02:26:34.170Z,0.00
2023-04-11T02:27:34.145Z,0.00
2023-04-11T02:28:34.172Z,0.00
2023-04-11T02:29:34.118Z,0.00
2023-04-11T02:30:34.067Z,0.00
2023-04-11T02:31:34.141Z,0.00
2023-04-11T02:32:34.040Z,0.00
2023-04-11T02:33:33.997Z,0.00
2023-04-11T02:34:33.976Z,4.00
2023-04-11T02:35:34.001Z,4.00
2023-04-11T02:36:33.918Z,4.00
2023-04-11T02:37:33.917Z,4.00
2023-04-11T02:38:33.870Z,4.00
2023-04-11T02:39:33.864Z,4.00
2023-04-11T02:40:33.841Z,4.00
2023-04-11T02:41:33.796Z,0.00
2023-04-11T02:42:33.789Z,0.00
2023-04-11T02:43:33.743Z,0.00
2023-04-11T02:44:33.736Z,0.00
2023-04-11T02:45:33.691Z,0.00
2023-04-11T02:46:33.695Z,0.00
2023-04-11T02:47:33.685Z,0.00
2023-04-11T02:48:33.622Z,0.00
2023-04-11T02:49:33.599Z,0.00
2023-04-11T02:50:33.570Z,0.00
2023-04-11T02:51:33.572Z,0.00
2023-04-11T02:52:33.526Z,0.00
2023-04-11T02:53:33.506Z,0.00
2023-04-11T02:54:33.475Z,0.00
2023-04-11T02:55:33.451Z,0.00
2023-04-11T02:56:33.418Z,0.00
2023-04-11T02:57:33.394Z,0.00
2023-04-11T02:58:33.375Z,0.00
2023-04-11T02:59:33.344Z,0.00
2023-04-11T03:00:33.326Z,0.00
2023-04-11T03:01:33.347Z,0.00
2023-04-11T03:02:33.413Z,0.00
2023-04-11T03:03:33.321Z,0.00
2023-04-11T03:04:33.286Z,0.00
2023-04-11T03:05:33.200Z,0.00
2023-04-11T03:06:33.171Z,0.00
2023-04-11T03:07:33.166Z,0.00
2023-04-11T03:08:33.117Z,0.00
2023-04-11T03:09:33.108Z,0.00
2023-04-11T03:10:33.070Z,0.00
2023-04-11T03:11:33.048Z,0.00
2023-04-11T03:12:33.018Z,0.00
2023-04-11T03:13:32.999Z,0.00
2023-04-11T03:14:32.970Z,0.00
2023-04-11T03:15:32.956Z,0.00
2023-04-11T03:16:33.155Z,0.00
2023-04-11T03:17:32.934Z,0.00
2023-04-11T03:18:32.867Z,0.00
2023-04-11T03:19:32.844Z,0.00
2023-04-11T03:20:32.827Z,0.00
2023-04-11T03:21:32.803Z,0.00
2023-04-11T03:22:32.771Z,0.00
2023-04-11T03:23:32.775Z,0.00
2023-04-11T03:24:32.736Z,0.00
2023-04-11T03:25:32.697Z,0.00
2023-04-11T03:26:32.705Z,0.00
2023-04-11T03:27:32.647Z,0.00
2023-04-11T03:28:32.625Z,0.00
2023-04-11T03:29:32.607Z,0.00
2023-04-11T03:30:32.569Z,0.00
2023-04-11T03:31:32.579Z,0.00
2023-04-11T03:32:32.578Z,0.00
2023-04-11T03:33:32.507Z,0.00
2023-04-11T03:34:32.469Z,4.00
2023-04-11T03:35:32.456Z,4.00
2023-04-11T03:36:32.438Z,4.00
2023-04-11T03:37:32.402Z,4.00
2023-04-11T03:38:32.370Z,4.00
2023-04-11T03:39:32.368Z,4.00
2023-04-11T03:40:32.322Z,4.00
2023-04-11T03:41:32.298Z,0.00
2023-04-11T03:42:32.266Z,0.00
2023-04-11T03:43:32.244Z,0.00
2023-04-11T03:44:32.217Z,0.00
2023-04-11T03:45:32.199Z,0.00
2023-04-11T03:46:32.218Z,0.00
2023-04-11T03:47:32.167Z,0.00
2023-04-11T03:48:32.140Z,0.00
2023-04-11T03:49:32.103Z,0.00
2023-04-11T03:50:32.068Z,0.00
2023-04-11T03:51:32.045Z,0.00
2023-04-11T03:52:32.042Z,0.00
2023-04-11T03:53:31.996Z,0.00
2023-04-11T03:54:31.998Z,0.00
2023-04-11T03:55:31.967Z,0.00
2023-04-11T03:56:31.920Z,0.00
2023-04-11T03:57:31.894Z,0.00
2023-04-11T03:58:31.871Z,0.00
2023-04-11T03:59:31.853Z,0.00
2023-04-11T04:00:31.826Z,0.00
2023-04-11T04:01:31.807Z,0.00
2023-04-11T04:02:31.838Z,0.00
2023-04-11T04:03:31.996Z,0.00
2023-04-11T04:04:31.812Z,0.00
2023-04-11T04:05:31.700Z,0.00
2023-04-11T04:06:31.666Z,0.00
2023-04-11T04:07:31.650Z,0.00
2023-04-11T04:08:31.621Z,0.00
2023-04-11T04:09:31.593Z,0.00
2023-04-11T04:10:31.574Z,0.00
2023-04-11T04:11:31.561Z,0.00
2023-04-11T04:12:31.523Z,0.00
2023-04-11T04:13:31.503Z,0.00
2023-04-11T04:14:31.473Z,0.00
2023-04-11T04:15:31.443Z,0.00
2023-04-11T04:16:31.442Z,0.00
2023-04-11T04:17:31.440Z,0.00
2023-04-11T04:18:31.362Z,0.00
2023-04-11T04:19:31.340Z,0.00
2023-04-11T04:20:31.310Z,0.00
2023-04-11T04:21:31.289Z,0.00
2023-04-11T04:22:31.258Z,0.00
2023-04-11T04:23:31.241Z,0.00
2023-04-11T04:24:31.213Z,0.00
2023-04-11T04:25:31.186Z,0.00
2023-04-11T04:26:31.163Z,4.00
2023-04-11T04:27:31.164Z,4.00
2023-04-11T04:28:31.125Z,0.00
2023-04-11T04:29:31.091Z,0.00
2023-04-11T04:30:31.058Z,0.00
2023-04-11T04:31:31.049Z,0.00
2023-04-11T04:32:31.235Z,0.00
2023-04-11T04:33:30.984Z,4.00
2023-04-11T04:34:30.960Z,0.00
2023-04-11T04:35:30.947Z,0.00
2023-04-11T04:36:30.917Z,0.00
2023-04-11T04:37:30.882Z,0.00
2023-04-11T04:38:30.858Z,0.00
2023-04-11T04:39:30.833Z,0.00
2023-04-11T04:40:30.812Z,0.00
2023-04-11T04:41:30.784Z,0.00
2023-04-11T04:42:30.768Z,4.00
2023-04-11T04:43:30.753Z,0.00
2023-04-11T04:44:30.710Z,0.00
2023-04-11T04:45:30.701Z,0.00
2023-04-11T04:46:30.650Z,0.00
2023-04-11T04:47:30.694Z,0.00
2023-04-11T04:48:30.601Z,0.00
2023-04-11T04:49:30.588Z,4.00
2023-04-11T04:50:30.558Z,4.00
2023-04-11T04:51:30.535Z,0.00
2023-04-11T04:52:30.499Z,4.00
2023-04-11T04:53:30.482Z,4.00
2023-04-11T04:54:30.449Z,4.00
2023-04-11T04:55:30.433Z,0.00
2023-04-11T04:56:30.402Z,4.00
2023-04-11T04:57:30.378Z,4.00
2023-04-11T04:58:30.352Z,4.00
2023-04-11T04:59:30.354Z,4.00
2023-04-11T05:00:30.298Z,0.00
2023-04-11T05:01:30.315Z,0.00
2023-04-11T05:02:30.387Z,4.00
2023-04-11T05:03:30.397Z,4.00
2023-04-11T05:04:30.259Z,0.00
2023-04-11T05:05:30.170Z,0.00
2023-04-11T05:06:30.155Z,0.00
2023-04-11T05:07:30.121Z,0.00
2023-04-11T05:08:30.098Z,0.00
2023-04-11T05:09:30.065Z,0.00
2023-04-11T05:10:30.039Z,0.00
2023-04-11T05:11:30.022Z,0.00
2023-04-11T05:12:29.990Z,0.00
2023-04-11T05:13:29.966Z,4.00
2023-04-11T05:14:29.932Z,4.00
2023-04-11T05:15:29.935Z,4.00
2023-04-11T05:16:29.899Z,4.00
2023-04-11T05:17:29.881Z,4.00
2023-04-11T05:18:29.830Z,4.00
2023-04-11T05:19:29.812Z,12.00
2023-04-11T05:20:29.877Z,8.00
2023-04-11T05:21:29.753Z,8.00
2023-04-11T05:22:29.730Z,4.00
2023-04-11T05:23:29.706Z,8.00
2023-04-11T05:24:29.675Z,8.00
2023-04-11T05:25:29.666Z,8.00
2023-04-11T05:26:29.625Z,8.00
2023-04-11T05:27:29.602Z,8.00
2023-04-11T05:28:29.577Z,12.00
2023-04-11T05:29:29.548Z,16.00
2023-04-11T05:30:29.543Z,16.00
2023-04-11T05:31:29.529Z,16.00
2023-04-11T05:32:29.495Z,20.00
2023-04-11T05:33:29.444Z,20.00
2023-04-11T05:34:29.416Z,28.00
2023-04-11T05:35:29.392Z,28.00
2023-04-11T05:36:29.400Z,20.00
2023-04-11T05:37:29.341Z,16.00
2023-04-11T05:38:29.315Z,16.00
2023-04-11T05:39:29.292Z,8.00
2023-04-11T05:40:29.264Z,12.00
2023-04-11T05:41:29.239Z,16.00
2023-04-11T05:42:29.211Z,20.00
2023-04-11T05:43:29.192Z,20.00
2023-04-11T05:44:29.161Z,12.00
2023-04-11T05:45:29.173Z,12.00
2023-04-11T05:46:29.147Z,12.00
2023-04-11T05:47:29.129Z,12.00
2023-04-11T05:48:29.055Z,24.00
2023-04-11T05:49:29.032Z,28.00
2023-04-11T05:50:29.005Z,28.00
2023-04-11T05:51:28.982Z,36.00
2023-04-11T05:52:28.951Z,32.00
2023-04-11T05:53:28.941Z,36.00
2023-04-11T05:54:28.900Z,36.00
2023-04-11T05:55:28.875Z,36.00
2023-04-11T05:56:28.851Z,44.00
2023-04-11T05:57:28.826Z,52.00
2023-04-11T05:58:28.799Z,48.00
2023-04-11T05:59:28.964Z,52.00
2023-04-11T06:00:28.745Z,48.00
2023-04-11T06:01:28.718Z,48.00
2023-04-11T06:02:28.844Z,48.00
2023-04-11T06:03:28.853Z,52.00
2023-04-11T06:04:28.904Z,56.00
2023-04-11T06:05:28.613Z,60.00
2023-04-11T06:06:28.592Z,60.00
2023-04-11T06:07:28.563Z,64.00
2023-04-11T06:08:28.541Z,76.00
2023-04-11T06:09:28.513Z,84.00
2023-04-11T06:10:28.491Z,80.00
2023-04-11T06:11:28.463Z,76.00
2023-04-11T06:12:28.436Z,72.00
2023-04-11T06:13:28.414Z,88.00
2023-04-11T06:14:28.383Z,108.00
2023-04-11T06:15:28.359Z,132.00
2023-04-11T06:16:28.373Z,148.00
2023-04-11T06:17:28.351Z,140.00
2023-04-11T06:18:28.283Z,128.00
2023-04-11T06:19:28.320Z,128.00
2023-04-11T06:20:28.233Z,144.00
2023-04-11T06:21:28.242Z,156.00
2023-04-11T06:22:28.197Z,176.00
2023-04-11T06:23:28.223Z,176.00
2023-04-11T06:24:28.139Z,184.00
2023-04-11T06:25:28.102Z,184.00
2023-04-11T06:26:28.077Z,188.00
2023-04-11T06:27:28.050Z,200.00
2023-04-11T06:28:28.036Z,232.00
2023-04-11T06:29:28.010Z,268.00
2023-04-11T06:30:27.983Z,324.00
2023-04-11T06:31:28.044Z,348.00
2023-04-11T06:32:27.977Z,344.00
2023-04-11T06:33:27.897Z,328.00
2023-04-11T06:34:27.880Z,332.00
2023-04-11T06:35:27.888Z,364.00
2023-04-11T06:36:27.827Z,400.00
2023-04-11T06:37:27.802Z,404.00
2023-04-11T06:38:27.767Z,408.00
2023-04-11T06:39:27.740Z,364.00
2023-04-11T06:40:27.721Z,324.00
2023-04-11T06:41:27.697Z,292.00
2023-04-11T06:42:27.674Z,280.00
2023-04-11T06:43:27.649Z,256.00
2023-04-11T06:44:27.640Z,228.00
2023-04-11T06:45:27.588Z,208.00
2023-04-11T06:46:27.624Z,204.00
2023-04-11T06:47:27.614Z,176.00
2023-04-11T06:48:27.526Z,160.00
2023-04-11T06:49:27.494Z,160.00
2023-04-11T06:50:27.468Z,176.00
2023-04-11T06:51:27.465Z,212.00
2023-04-11T06:52:28.367Z,260.00
2023-04-11T06:53:27.389Z,348.00
2023-04-11T06:54:27.371Z,344.00
2023-04-11T06:55:27.334Z,420.00
2023-04-11T06:56:27.313Z,296.00
2023-04-11T06:57:27.283Z,312.00
2023-04-11T06:58:27.267Z,320.00
2023-04-11T06:59:27.525Z,340.00
2023-04-11T07:00:27.214Z,328.00
2023-04-11T07:01:27.197Z,580.00
2023-04-11T07:02:27.385Z,544.00
2023-04-11T07:03:27.224Z,348.00
2023-04-11T07:04:27.306Z,580.00
2023-04-11T07:05:27.083Z,616.00
2023-04-11T07:06:27.078Z,660.00
2023-04-11T07:07:27.176Z,568.00
2023-04-11T07:08:27.004Z,336.00
2023-04-11T07:09:26.981Z,272.00
2023-04-11T07:10:26.958Z,328.00
2023-04-11T07:11:26.929Z,316.00
2023-04-11T07:12:26.902Z,328.00
2023-04-11T07:13:26.882Z,584.00
2023-04-11T07:14:26.848Z,620.00
2023-04-11T07:15:26.830Z,660.00
2023-04-11T07:16:26.825Z,660.00
2023-04-11T07:17:26.802Z,516.00
2023-04-11T07:18:26.750Z,556.00
2023-04-11T07:19:26.718Z,660.00
2023-04-11T07:20:26.695Z,696.00
2023-04-11T07:21:26.668Z,764.00
2023-04-11T07:22:26.646Z,688.00
2023-04-11T07:23:26.665Z,692.00
2023-04-11T07:24:26.594Z,400.00
2023-04-11T07:25:26.566Z,432.00
2023-04-11T07:26:26.544Z,224.00
2023-04-11T07:27:26.532Z,208.00
2023-04-11T07:28:26.500Z,240.00
2023-04-11T07:29:26.473Z,316.00
2023-04-11T07:30:26.449Z,364.00
2023-04-11T07:31:26.449Z,248.00
2023-04-11T07:32:26.403Z,268.00
2023-04-11T07:33:26.367Z,920.00
2023-04-11T07:34:26.348Z,860.00
2023-04-11T07:35:26.310Z,940.00
2023-04-11T07:36:26.301Z,872.00
2023-04-11T07:37:26.269Z,864.00
2023-04-11T07:38:26.242Z,1012.00
2023-04-11T07:39:26.233Z,1036.00
2023-04-11T07:40:26.197Z,1072.00
2023-04-11T07:41:26.159Z,660.00
2023-04-11T07:42:26.137Z,1088.00
2023-04-11T07:43:26.113Z,436.00
2023-04-11T07:44:27.217Z,272.00
2023-04-11T07:45:26.080Z,292.00
2023-04-11T07:46:26.051Z,384.00
2023-04-11T07:47:26.015Z,428.00
2023-04-11T07:48:25.997Z,496.00
2023-04-11T07:49:25.954Z,356.00
2023-04-11T07:50:25.984Z,564.00
2023-04-11T07:51:25.909Z,1208.00
2023-04-11T07:52:25.929Z,1268.00
2023-04-11T07:53:25.863Z,1324.00
2023-04-11T07:54:25.831Z,1468.00
2023-04-11T07:55:25.840Z,1500.00
2023-04-11T07:56:25.781Z,584.00
2023-04-11T07:57:25.748Z,536.00
2023-04-11T07:58:25.728Z,476.00
2023-04-11T07:59:25.703Z,472.00
2023-04-11T08:00:25.781Z,1464.00
2023-04-11T08:01:25.727Z,388.00
2023-04-11T08:02:25.792Z,304.00
2023-04-11T08:03:25.831Z,1240.00
2023-04-11T08:04:25.651Z,1420.00
2023-04-11T08:05:25.698Z,320.00
2023-04-11T08:06:25.521Z,412.00
2023-04-11T08:07:25.495Z,1508.00
2023-04-11T08:08:25.476Z,476.00
2023-04-11T08:09:25.449Z,440.00
2023-04-11T08:10:25.500Z,524.00
2023-04-11T08:11:25.415Z,1496.00
2023-04-11T08:12:25.372Z,1704.00
2023-04-11T08:13:25.349Z,640.00
2023-04-11T08:14:25.314Z,1724.00
2023-04-11T08:15:25.294Z,364.00
2023-04-11T08:16:25.328Z,392.00
2023-04-11T08:17:28.382Z,1692.00
2023-04-11T08:18:25.278Z,1524.00
2023-04-11T08:19:25.205Z,1692.00
2023-04-11T08:20:25.261Z,1688.00
2023-04-11T08:21:25.212Z,1788.00
2023-04-11T08:22:25.121Z,544.00
2023-04-11T08:23:25.087Z,596.00
2023-04-11T08:24:25.066Z,436.00
2023-04-11T08:25:25.042Z,428.00
2023-04-11T08:26:25.024Z,460.00
2023-04-11T08:27:25.011Z,468.00
2023-04-11T08:28:24.982Z,680.00
2023-04-11T08:29:24.936Z,400.00
2023-04-11T08:30:24.936Z,472.00
2023-04-11T08:31:25.007Z,448.00
2023-04-11T08:32:24.885Z,420.00
2023-04-11T08:33:24.843Z,416.00
2023-04-11T08:34:24.825Z,444.00
2023-04-11T08:35:24.793Z,520.00
2023-04-11T08:36:24.776Z,1144.00
2023-04-11T08:37:24.740Z,540.00
2023-04-11T08:38:24.717Z,548.00
2023-04-11T08:39:24.689Z,600.00
2023-04-11T08:40:27.014Z,564.00
2023-04-11T08:41:24.642Z,580.00
2023-04-11T08:42:24.620Z,916.00
2023-04-11T08:43:24.617Z,664.00
2023-04-11T08:44:24.561Z,1936.00
2023-04-11T08:45:24.540Z,1544.00
2023-04-11T08:46:24.538Z,1048.00
2023-04-11T08:47:24.569Z,2000.00
2023-04-11T08:48:24.470Z,1960.00
2023-04-11T08:49:24.434Z,1964.00
2023-04-11T08:50:24.452Z,1212.00
2023-04-11T08:51:24.388Z,1060.00
2023-04-11T08:52:24.375Z,632.00
2023-04-11T08:53:24.333Z,548.00
2023-04-11T08:54:24.310Z,592.00
2023-04-11T08:55:24.279Z,688.00
2023-04-11T08:56:24.264Z,632.00
2023-04-11T08:57:24.229Z,740.00
2023-04-11T08:58:24.211Z,592.00
2023-04-11T08:59:24.226Z,548.00
2023-04-11T09:00:24.221Z,592.00
2023-04-11T09:01:24.187Z,616.00
2023-04-11T09:02:24.255Z,676.00
2023-04-11T09:03:24.211Z,664.00
2023-04-11T09:04:24.088Z,556.00
2023-04-11T09:05:24.037Z,684.00
2023-04-11T09:06:24.010Z,1448.00
2023-04-11T09:07:23.980Z,788.00
2023-04-11T09:08:23.963Z,692.00
2023-04-11T09:09:23.941Z,480.00
2023-04-11T09:10:23.948Z,520.00
2023-04-11T09:11:23.879Z,1092.00
2023-04-11T09:12:23.864Z,1912.00
2023-04-11T09:13:23.971Z,1132.00
2023-04-11T09:14:23.837Z,1956.00
2023-04-11T09:15:23.820Z,2172.00
2023-04-11T09:16:23.823Z,772.00
2023-04-11T09:17:23.821Z,784.00
2023-04-11T09:18:23.714Z,860.00
2023-04-11T09:19:23.684Z,2104.00
2023-04-11T09:20:23.727Z,2212.00
2023-04-11T09:21:23.638Z,824.00
2023-04-11T09:22:23.615Z,972.00
2023-04-11T09:23:26.054Z,2168.00
2023-04-11T09:24:23.561Z,2096.00
2023-04-11T09:25:23.570Z,660.00
2023-04-11T09:26:24.216Z,892.00
2023-04-11T09:27:23.494Z,2188.00
2023-04-11T09:28:23.465Z,2108.00
2023-04-11T09:29:23.448Z,1344.00
2023-04-11T09:30:23.475Z,2060.00
2023-04-11T09:31:23.475Z,2060.00
2023-04-11T09:32:23.407Z,2048.00
2023-04-11T09:33:23.350Z,2028.00
2023-04-11T09:34:23.323Z,1964.00
2023-04-11T09:35:23.298Z,1932.00
2023-04-11T09:36:23.286Z,1932.00
2023-04-11T09:37:23.262Z,1980.00
2023-04-11T09:38:23.218Z,2032.00
2023-04-11T09:39:23.204Z,2152.00
2023-04-11T09:40:23.204Z,2228.00
2023-04-11T09:41:23.149Z,2264.00
2023-04-11T09:42:23.144Z,1980.00
2023-04-11T09:43:23.105Z,720.00
2023-04-11T09:44:23.078Z,2196.00
2023-04-11T09:45:23.056Z,2096.00
2023-04-11T09:46:23.199Z,2112.00
2023-04-11T09:47:23.082Z,2152.00
2023-04-11T09:48:29.335Z,1212.00
2023-04-11T09:49:22.953Z,1104.00
2023-04-11T09:50:22.985Z,2052.00
2023-04-11T09:51:34.216Z,2188.00
2023-04-11T09:52:22.908Z,1688.00
2023-04-11T09:53:22.874Z,832.00
2023-04-11T09:54:22.840Z,1956.00
2023-04-11T09:55:22.818Z,2208.00
2023-04-11T09:56:22.788Z,2300.00
2023-04-11T09:57:22.766Z,2316.00
2023-04-11T09:58:22.746Z,2032.00
2023-04-11T09:59:22.737Z,1408.00
2023-04-11T10:00:22.695Z,2004.00
2023-04-11T10:01:22.737Z,548.00
2023-04-11T10:02:22.766Z,1104.00
2023-04-11T10:03:22.793Z,2376.00
2023-04-11T10:04:22.615Z,2328.00
2023-04-11T10:05:22.577Z,1692.00
2023-04-11T10:06:22.554Z,992.00
2023-04-11T10:07:22.533Z,1664.00
2023-04-11T10:08:22.502Z,2376.00
2023-04-11T10:09:22.476Z,2352.00
2023-04-11T10:10:22.468Z,2016.00
2023-04-11T10:11:23.565Z,2340.00
2023-04-11T10:12:22.402Z,872.00
2023-04-11T10:13:22.381Z,1340.00
2023-04-11T10:14:22.354Z,2296.00
2023-04-11T10:15:22.344Z,2172.00
2023-04-11T10:16:22.356Z,2096.00
2023-04-11T10:17:23.953Z,520.00
2023-04-11T10:18:22.263Z,504.00
2023-04-11T10:19:22.259Z,552.00
2023-04-11T10:20:22.214Z,492.00
2023-04-11T10:21:22.196Z,492.00
2023-04-11T10:22:22.170Z,564.00
2023-04-11T10:23:22.149Z,2120.00
2023-04-11T10:24:22.154Z,2028.00
2023-04-11T10:25:22.114Z,480.00
2023-04-11T10:26:22.075Z,344.00
2023-04-11T10:27:22.053Z,276.00
2023-04-11T10:28:22.027Z,204.00
2023-04-11T10:29:22.002Z,140.00
2023-04-11T10:30:21.979Z,124.00
2023-04-11T10:31:22.003Z,124.00
2023-04-11T10:32:22.024Z,132.00
2023-04-11T10:33:21.930Z,160.00
2023-04-11T10:34:21.880Z,176.00
2023-04-11T10:35:21.989Z,176.00
2023-04-11T10:36:22.915Z,160.00
2023-04-11T10:37:21.819Z,140.00
2023-04-11T10:38:21.783Z,132.00
2023-04-11T10:39:21.760Z,144.00
2023-04-11T10:40:21.743Z,172.00
2023-04-11T10:41:21.716Z,240.00
2023-04-11T10:42:21.690Z,508.00
2023-04-11T10:43:21.684Z,1764.00
2023-04-11T10:44:21.638Z,1768.00
2023-04-11T10:45:21.613Z,1760.00
2023-04-11T10:46:21.679Z,1784.00
2023-04-11T10:47:21.595Z,1748.00
2023-04-11T10:48:21.540Z,1756.00
2023-04-11T10:49:21.521Z,1744.00
2023-04-11T10:50:21.490Z,1760.00
2023-04-11T10:51:21.494Z,1796.00
2023-04-11T10:52:21.446Z,836.00
2023-04-11T10:53:21.420Z,504.00
2023-04-11T10:54:21.403Z,1808.00
2023-04-11T10:55:21.380Z,1860.00
2023-04-11T10:56:21.340Z,1784.00
2023-04-11T10:57:21.322Z,1772.00
2023-04-11T10:58:21.293Z,1768.00
2023-04-11T10:59:21.285Z,1764.00
2023-04-11T11:00:21.252Z,1756.00
2023-04-11T11:01:31.876Z,1752.00
2023-04-11T11:02:21.402Z,1756.00
2023-04-11T11:03:21.330Z,1764.00
2023-04-11T11:04:21.356Z,1788.00
2023-04-11T11:05:21.136Z,1792.00
2023-04-11T11:06:21.107Z,1824.00
2023-04-11T11:07:21.097Z,1780.00
2023-04-11T11:08:21.052Z,1876.00
2023-04-11T11:09:21.049Z,1832.00
2023-04-11T11:10:21.009Z,1848.00
2023-04-11T11:11:20.982Z,1876.00
2023-04-11T11:12:20.954Z,1896.00
2023-04-11T11:13:20.929Z,1896.00
2023-04-11T11:14:20.899Z,1912.00
2023-04-11T11:15:20.885Z,1952.00
2023-04-11T11:16:20.876Z,2008.00
2023-04-11T11:17:20.858Z,2076.00
2023-04-11T11:18:20.812Z,832.00
2023-04-11T11:19:20.791Z,1060.00
2023-04-11T11:20:20.772Z,600.00
2023-04-11T11:21:26.717Z,2156.00
2023-04-11T11:22:20.717Z,1920.00
2023-04-11T11:23:20.712Z,848.00
2023-04-11T11:24:20.668Z,424.00
2023-04-11T11:25:20.687Z,396.00
2023-04-11T11:26:20.623Z,592.00
2023-04-11T11:27:20.598Z,440.00
2023-04-11T11:28:20.567Z,1976.00
2023-04-11T11:29:20.552Z,2052.00
2023-04-11T11:30:20.530Z,2012.00
2023-04-11T11:31:20.526Z,2060.00
2023-04-11T11:32:20.474Z,2088.00
2023-04-11T11:33:20.456Z,2152.00
2023-04-11T11:34:23.909Z,612.00
2023-04-11T11:35:20.414Z,632.00
2023-04-11T11:36:20.404Z,2052.00
2023-04-11T11:37:20.353Z,920.00
2023-04-11T11:38:20.336Z,1528.00
2023-04-11T11:39:21.288Z,2180.00
2023-04-11T11:40:20.283Z,2156.00
2023-04-11T11:41:20.267Z,2172.00
2023-04-11T11:42:20.240Z,2176.00
2023-04-11T11:43:20.210Z,2168.00
2023-04-11T11:44:20.192Z,2108.00
2023-04-11T11:45:20.170Z,2052.00
2023-04-11T11:46:20.177Z,2060.00
2023-04-11T11:47:20.119Z,2080.00
2023-04-11T11:48:20.126Z,2068.00
2023-04-11T11:49:20.075Z,432.00
2023-04-11T11:50:20.055Z,2148.00
2023-04-11T11:51:20.032Z,2136.00
2023-04-11T11:52:20.014Z,2148.00
2023-04-11T11:53:19.989Z,2216.00
2023-04-11T11:54:19.958Z,2216.00
2023-04-11T11:55:19.992Z,2224.00
2023-04-11T11:56:19.914Z,1512.00
2023-04-11T11:57:19.888Z,652.00
2023-04-11T11:58:19.869Z,2196.00
2023-04-11T11:59:19.850Z,2200.00
2023-04-11T12:00:19.820Z,2156.00
2023-04-11T12:01:19.811Z,2148.00
2023-04-11T12:02:19.869Z,1880.00
2023-04-11T12:03:19.829Z,2152.00
2023-04-11T12:04:19.868Z,1420.00
2023-04-11T12:05:19.771Z,2244.00
2023-04-11T12:06:19.690Z,2180.00
2023-04-11T12:07:19.658Z,2148.00
2023-04-11T12:08:19.631Z,2172.00
2023-04-11T12:09:19.609Z,2136.00
2023-04-11T12:10:19.629Z,2096.00
2023-04-11T12:11:19.590Z,2080.00
2023-04-11T12:12:19.543Z,2104.00
2023-04-11T12:13:19.541Z,2092.00
2023-04-11T12:14:19.500Z,2124.00
2023-04-11T12:15:19.472Z,2132.00
2023-04-11T12:16:19.472Z,2128.00
2023-04-11T12:17:19.447Z,2204.00
2023-04-11T12:18:19.397Z,2408.00
2023-04-11T12:19:19.375Z,2356.00
2023-04-11T12:20:19.394Z,2360.00
2023-04-11T12:21:19.359Z,2344.00
2023-04-11T12:22:19.300Z,2276.00
2023-04-11T12:23:19.283Z,2248.00
2023-04-11T12:24:19.257Z,2276.00
2023-04-11T12:25:19.242Z,2176.00
2023-04-11T12:26:19.211Z,2332.00
2023-04-11T12:27:19.264Z,2304.00
2023-04-11T12:28:19.178Z,2344.00
2023-04-11T12:29:19.152Z,828.00
2023-04-11T12:30:19.119Z,688.00
2023-04-11T12:31:19.135Z,652.00
2023-04-11T12:32:19.064Z,2224.00
2023-04-11T12:33:19.049Z,1036.00
2023-04-11T12:34:19.026Z,684.00
2023-04-11T12:35:19.005Z,2204.00
2023-04-11T12:36:18.979Z,1520.00
2023-04-11T12:37:18.958Z,504.00
2023-04-11T12:38:18.935Z,572.00
2023-04-11T12:39:18.913Z,2332.00
2023-04-11T12:40:18.884Z,2316.00
2023-04-11T12:42:21.133Z,624.00
2023-04-11T12:43:18.895Z,604.00
2023-04-11T12:44:18.789Z,680.00
2023-04-11T12:45:18.777Z,1048.00